sensor_id;sensor_type;location;lat;lon;timestamp;pressure;altitude;pressure_sealevel;temperature;humidity
70027;BME280;57506;50.092;15.804;2023-05-24T00:00:50;99080.78;;;13.44;100.00
70027;BME280;57506;50.092;15.804;2023-05-24T00:03:17;99087.03;;;13.38;100.00
70027;BME280;57506;50.092;15.804;2023-05-24T00:05:43;99083.69;;;13.36;100.00
70027;BME280;57506;50.092;15.804;2023-05-24T00:08:11;99073.31;;;13.33;100.00
70027;BME280;57506;50.092;15.804;2023-05-24T00:10:36;99069.34;;;13.36;100.00
70027;BME280;57506;50.092;15.804;2023-05-24T00:13:02;99063.75;;;13.30;100.00
70027;BME280;57506;50.092;15.804;2023-05-24T00:15:27;99080.84;;;13.31;100.00
70027;BME280;57506;50.092;15.804;2023-05-24T00:17:53;99068.34;;;13.23;100.00
70027;BME280;57506;50.092;15.804;2023-05-24T00:20:18;99080.44;;;13.21;100.00
70027;BME280;57506;50.092;15.804;2023-05-24T00:22:44;99072.09;;;13.22;100.00
70027;BME280;57506;50.092;15.804;2023-05-24T00:25:10;99065.03;;;13.21;100.00
70027;BME280;57506;50.092;15.804;2023-05-24T00:27:36;99059.81;;;13.20;100.00
70027;BME280;57506;50.092;15.804;2023-05-24T00:30:02;99070.47;;;13.08;100.00
70027;BME280;57506;50.092;15.804;2023-05-24T00:32:28;99073.34;;;13.20;100.00
70027;BME280;57506;50.092;15.804;2023-05-24T00:34:53;99062.13;;;13.10;100.00
70027;BME280;57506;50.092;15.804;2023-05-24T00:37:19;99064.63;;;13.11;100.00
70027;BME280;57506;50.092;15.804;2023-05-24T00:39:44;99062.56;;;13.07;100.00
70027;BME280;57506;50.092;15.804;2023-05-24T00:42:10;99063.81;;;13.04;100.00
70027;BME280;57506;50.092;15.804;2023-05-24T00:44:35;99061.09;;;13.04;100.00
70027;BME280;57506;50.092;15.804;2023-05-24T00:47:01;99069.25;;;12.98;100.00
70027;BME280;57506;50.092;15.804;2023-05-24T00:49:26;99065.06;;;13.02;100.00
70027;BME280;57506;50.092;15.804;2023-05-24T00:51:53;99077.75;;;13.01;100.00
70027;BME280;57506;50.092;15.804;2023-05-24T00:54:19;99067.13;;;13.00;100.00
70027;BME280;57506;50.092;15.804;2023-05-24T00:56:46;99077.75;;;13.01;100.00
70027;BME280;57506;50.092;15.804;2023-05-24T00:59:13;99073.16;;;13.02;100.00
70027;BME280;57506;50.092;15.804;2023-05-24T01:01:38;99073.63;;;12.92;100.00
70027;BME280;57506;50.092;15.804;2023-05-24T01:04:06;99092.56;;;12.99;100.00
70027;BME280;57506;50.092;15.804;2023-05-24T01:06:46;99088.34;;;13.03;100.00
70027;BME280;57506;50.092;15.804;2023-05-24T01:09:24;99083.78;;;13.03;100.00
70027;BME280;57506;50.092;15.804;2023-05-24T01:17:47;99082.97;;;12.89;100.00
70027;BME280;57506;50.092;15.804;2023-05-24T01:20:20;99100.50;;;12.80;100.00
70027;BME280;57506;50.092;15.804;2023-05-24T01:23:08;99100.06;;;12.77;100.00
70027;BME280;57506;50.092;15.804;2023-05-24T01:28:05;99092.16;;;12.69;100.00
70027;BME280;57506;50.092;15.804;2023-05-24T01:30:31;99096.53;;;12.70;100.00
70027;BME280;57506;50.092;15.804;2023-05-24T01:32:57;99100.09;;;12.57;100.00
70027;BME280;57506;50.092;15.804;2023-05-24T01:35:23;99094.66;;;12.50;100.00
70027;BME280;57506;50.092;15.804;2023-05-24T01:37:49;99098.84;;;12.40;100.00
70027;BME280;57506;50.092;15.804;2023-05-24T01:40:14;99100.09;;;12.44;100.00
70027;BME280;57506;50.092;15.804;2023-05-24T01:42:58;99108.19;;;12.37;100.00
70027;BME280;57506;50.092;15.804;2023-05-24T01:51:24;99113.59;;;12.17;100.00
70027;BME280;57506;50.092;15.804;2023-05-24T01:53:56;99119.78;;;12.05;100.00
70027;BME280;57506;50.092;15.804;2023-05-24T01:56:23;99122.28;;;12.06;100.00
70027;BME280;57506;50.092;15.804;2023-05-24T01:58:51;99117.09;;;11.98;100.00
70027;BME280;57506;50.092;15.804;2023-05-24T02:01:19;99117.09;;;11.98;100.00
70027;BME280;57506;50.092;15.804;2023-05-24T02:03:45;99124.56;;;11.96;100.00
70027;BME280;57506;50.092;15.804;2023-05-24T02:06:11;99126.22;;;11.97;100.00
70027;BME280;57506;50.092;15.804;2023-05-24T02:08:37;99124.34;;;11.91;100.00
70027;BME280;57506;50.092;15.804;2023-05-24T02:11:02;99121.00;;;11.89;100.00
70027;BME280;57506;50.092;15.804;2023-05-24T02:13:28;99119.97;;;11.90;100.00
70027;BME280;57506;50.092;15.804;2023-05-24T02:15:53;99133.25;;;11.78;100.00
70027;BME280;57506;50.092;15.804;2023-05-24T02:18:19;99129.31;;;11.81;100.00
70027;BME280;57506;50.092;15.804;2023-05-24T02:20:44;99129.63;;;11.71;100.00
70027;BME280;57506;50.092;15.804;2023-05-24T02:23:11;99132.13;;;11.73;100.00
70027;BME280;57506;50.092;15.804;2023-05-24T02:25:36;99128.41;;;11.74;100.00
70027;BME280;57506;50.092;15.804;2023-05-24T02:28:02;99130.63;;;11.50;100.00
70027;BME280;57506;50.092;15.804;2023-05-24T02:30:27;99129.94;;;11.42;100.00
70027;BME280;57506;50.092;15.804;2023-05-24T02:32:53;99130.34;;;11.39;100.00
70027;BME280;57506;50.092;15.804;2023-05-24T02:35:18;99128.84;;;11.30;100.00
70027;BME280;57506;50.092;15.804;2023-05-24T02:37:44;99119.69;;;11.24;100.00
70027;BME280;57506;50.092;15.804;2023-05-24T02:40:10;99128.16;;;11.21;100.00
70027;BME280;57506;50.092;15.804;2023-05-24T02:42:39;99126.94;;;11.17;100.00
70027;BME280;57506;50.092;15.804;2023-05-24T02:45:05;99125.41;;;11.08;100.00
70027;BME280;57506;50.092;15.804;2023-05-24T02:47:30;99120.84;;;11.08;100.00
70027;BME280;57506;50.092;15.804;2023-05-24T02:49:56;99121.47;;;11.10;100.00
70027;BME280;57506;50.092;15.804;2023-05-24T02:52:21;99128.28;;;11.06;100.00
70027;BME280;57506;50.092;15.804;2023-05-24T02:54:48;99124.56;;;11.07;100.00
70027;BME280;57506;50.092;15.804;2023-05-24T02:57:14;99124.34;;;11.02;100.00
70027;BME280;57506;50.092;15.804;2023-05-24T02:59:40;99118.66;;;10.91;100.00
70027;BME280;57506;50.092;15.804;2023-05-24T03:02:06;99144.84;;;10.97;100.00
70027;BME280;57506;50.092;15.804;2023-05-24T03:04:31;99139.00;;;10.93;100.00
70027;BME280;57506;50.092;15.804;2023-05-24T03:06:57;99131.94;;;10.92;100.00
70027;BME280;57506;50.092;15.804;2023-05-24T03:09:22;99138.53;;;10.83;100.00
70027;BME280;57506;50.092;15.804;2023-05-24T03:11:48;99141.22;;;10.83;100.00
70027;BME280;57506;50.092;15.804;2023-05-24T03:14:13;99153.63;;;10.77;100.00
70027;BME280;57506;50.092;15.804;2023-05-24T03:16:41;99147.38;;;10.70;100.00
70027;BME280;57506;50.092;15.804;2023-05-24T03:19:07;99153.78;;;10.69;100.00
70027;BME280;57506;50.092;15.804;2023-05-24T03:21:32;99158.63;;;10.80;100.00
70027;BME280;57506;50.092;15.804;2023-05-24T03:23:58;99168.75;;;10.78;100.00
70027;BME280;57506;50.092;15.804;2023-05-24T03:26:23;99170.78;;;10.70;100.00
70027;BME280;57506;50.092;15.804;2023-05-24T03:28:50;99169.16;;;10.75;100.00
70027;BME280;57506;50.092;15.804;2023-05-24T03:31:16;99179.94;;;10.75;100.00
70027;BME280;57506;50.092;15.804;2023-05-24T03:33:44;99171.22;;;10.73;100.00
70027;BME280;57506;50.092;15.804;2023-05-24T03:36:10;99180.56;;;10.77;100.00
70027;BME280;57506;50.092;15.804;2023-05-24T03:38:35;99177.88;;;10.77;100.00
70027;BME280;57506;50.092;15.804;2023-05-24T03:41:01;99180.75;;;10.69;100.00
70027;BME280;57506;50.092;15.804;2023-05-24T03:43:26;99183.81;;;10.66;100.00
70027;BME280;57506;50.092;15.804;2023-05-24T03:45:52;99186.91;;;10.63;100.00
70027;BME280;57506;50.092;15.804;2023-05-24T03:48:17;99198.56;;;10.70;100.00
70027;BME280;57506;50.092;15.804;2023-05-24T03:50:45;99195.44;;;10.67;100.00
70027;BME280;57506;50.092;15.804;2023-05-24T03:53:10;99200.75;;;10.60;100.00
70027;BME280;57506;50.092;15.804;2023-05-24T03:55:36;99196.06;;;10.69;100.00
70027;BME280;57506;50.092;15.804;2023-05-24T03:58:01;99198.75;;;10.69;100.00
70027;BME280;57506;50.092;15.804;2023-05-24T04:00:27;99214.97;;;10.75;100.00
70027;BME280;57506;50.092;15.804;2023-05-24T04:02:52;99212.47;;;10.74;100.00
70027;BME280;57506;50.092;15.804;2023-05-24T04:05:20;99219.72;;;10.73;100.00
70027;BME280;57506;50.092;15.804;2023-05-24T04:07:45;99212.53;;;10.80;100.00
70027;BME280;57506;50.092;15.804;2023-05-24T04:10:11;99233.94;;;10.88;100.00
70027;BME280;57506;50.092;15.804;2023-05-24T04:12:37;99225.25;;;10.86;100.00
70027;BME280;57506;50.092;15.804;2023-05-24T04:15:02;99231.03;;;10.83;100.00
70027;BME280;57506;50.092;15.804;2023-05-24T04:17:29;99237.72;;;10.88;100.00
70027;BME280;57506;50.092;15.804;2023-05-24T04:19:59;99240.97;;;10.83;100.00
70027;BME280;57506;50.092;15.804;2023-05-24T04:22:24;99241.28;;;10.73;100.00
70027;BME280;57506;50.092;15.804;2023-05-24T04:24:50;99229.94;;;10.78;100.00
70027;BME280;57506;50.092;15.804;2023-05-24T04:27:15;99228.44;;;10.75;100.00
70027;BME280;57506;50.092;15.804;2023-05-24T04:29:43;99235.41;;;10.84;100.00
70027;BME280;57506;50.092;15.804;2023-05-24T04:32:09;99239.13;;;10.83;100.00
70027;BME280;57506;50.092;15.804;2023-05-24T04:34:38;99245.53;;;10.82;100.00
70027;BME280;57506;50.092;15.804;2023-05-24T04:37:07;99247.25;;;10.90;100.00
70027;BME280;57506;50.092;15.804;2023-05-24T04:39:33;99243.97;;;10.95;100.00
70027;BME280;57506;50.092;15.804;2023-05-24T04:41:58;99245.00;;;10.94;100.00
70027;BME280;57506;50.092;15.804;2023-05-24T04:44:25;99240.44;;;10.94;100.00
70027;BME280;57506;50.092;15.804;2023-05-24T04:46:51;99255.47;;;11.03;100.00
70027;BME280;57506;50.092;15.804;2023-05-24T04:49:17;99245.94;;;11.07;100.00
70027;BME280;57506;50.092;15.804;2023-05-24T04:51:44;99255.75;;;11.15;100.00
70027;BME280;57506;50.092;15.804;2023-05-24T04:54:10;99248.13;;;11.18;100.00
70027;BME280;57506;50.092;15.804;2023-05-24T04:56:37;99255.78;;;11.21;100.00
70027;BME280;57506;50.092;15.804;2023-05-24T04:59:04;99240.69;;;11.27;100.00
70027;BME280;57506;50.092;15.804;2023-05-24T05:01:30;99246.53;;;11.31;100.00
70027;BME280;57506;50.092;15.804;2023-05-24T05:03:57;99251.38;;;11.42;100.00
70027;BME280;57506;50.092;15.804;2023-05-24T05:06:22;99241.97;;;11.31;100.00
70027;BME280;57506;50.092;15.804;2023-05-24T05:08:49;99257.34;;;11.37;100.00
70027;BME280;57506;50.092;15.804;2023-05-24T05:11:14;99251.94;;;11.37;100.00
70027;BME280;57506;50.092;15.804;2023-05-24T05:13:40;99254.50;;;11.45;100.00
70027;BME280;57506;50.092;15.804;2023-05-24T05:16:05;99258.09;;;11.52;100.00
70027;BME280;57506;50.092;15.804;2023-05-24T05:18:31;99260.19;;;11.57;100.00
70027;BME280;57506;50.092;15.804;2023-05-24T05:20:58;99261.81;;;11.51;100.00
70027;BME280;57506;50.092;15.804;2023-05-24T05:23:23;99256.25;;;11.60;100.00
70027;BME280;57506;50.092;15.804;2023-05-24T05:25:49;99254.25;;;11.75;100.00
70027;BME280;57506;50.092;15.804;2023-05-24T05:28:14;99262.19;;;11.76;100.00
70027;BME280;57506;50.092;15.804;2023-05-24T05:30:40;99262.19;;;11.76;100.00
70027;BME280;57506;50.092;15.804;2023-05-24T05:33:05;99257.88;;;11.82;100.00
70027;BME280;57506;50.092;15.804;2023-05-24T05:35:31;99270.28;;;11.76;100.00
70027;BME280;57506;50.092;15.804;2023-05-24T05:37:57;99274.19;;;11.74;100.00
70027;BME280;57506;50.092;15.804;2023-05-24T05:40:23;99284.78;;;11.69;100.00
70027;BME280;57506;50.092;15.804;2023-05-24T05:42:48;99288.22;;;11.84;100.00
70027;BME280;57506;50.092;15.804;2023-05-24T05:45:14;99281.59;;;11.93;100.00
70027;BME280;57506;50.092;15.804;2023-05-24T05:47:40;99290.78;;;12.05;100.00
70027;BME280;57506;50.092;15.804;2023-05-24T05:50:07;99293.69;;;12.04;100.00
70027;BME280;57506;50.092;15.804;2023-05-24T05:52:33;99291.81;;;12.04;100.00
70027;BME280;57506;50.092;15.804;2023-05-24T05:54:59;99287.06;;;12.06;100.00
70027;BME280;57506;50.092;15.804;2023-05-24T05:57:25;99302.97;;;12.29;100.00
70027;BME280;57506;50.092;15.804;2023-05-24T05:59:51;99304.63;;;12.37;100.00
70027;BME280;57506;50.092;15.804;2023-05-24T06:02:16;99291.75;;;12.39;100.00
70027;BME280;57506;50.092;15.804;2023-05-24T06:04:48;99301.66;;;12.18;100.00
70027;BME280;57506;50.092;15.804;2023-05-24T06:07:14;99303.13;;;12.21;100.00
70027;BME280;57506;50.092;15.804;2023-05-24T06:09:39;99312.06;;;12.21;100.00
70027;BME280;57506;50.092;15.804;2023-05-24T06:12:05;99309.25;;;12.43;100.00
70027;BME280;57506;50.092;15.804;2023-05-24T06:14:31;99308.38;;;12.36;100.00
70027;BME280;57506;50.092;15.804;2023-05-24T06:16:57;99314.97;;;12.20;100.00
70027;BME280;57506;50.092;15.804;2023-05-24T06:19:22;99308.97;;;12.24;100.00
70027;BME280;57506;50.092;15.804;2023-05-24T06:21:48;99307.50;;;12.22;100.00
70027;BME280;57506;50.092;15.804;2023-05-24T06:24:18;99319.19;;;12.36;100.00
70027;BME280;57506;50.092;15.804;2023-05-24T06:26:47;99315.44;;;12.37;100.00
70027;BME280;57506;50.092;15.804;2023-05-24T06:29:13;99317.16;;;12.44;100.00
70027;BME280;57506;50.092;15.804;2023-05-24T06:31:39;99323.63;;;12.56;100.00
70027;BME280;57506;50.092;15.804;2023-05-24T06:34:05;99328.19;;;12.56;98.35
70027;BME280;57506;50.092;15.804;2023-05-24T06:36:30;99325.13;;;12.72;99.18
70027;BME280;57506;50.092;15.804;2023-05-24T06:39:05;99327.53;;;12.41;96.25
70027;BME280;57506;50.092;15.804;2023-05-24T06:41:31;99330.03;;;12.42;98.01
70027;BME280;57506;50.092;15.804;2023-05-24T06:43:56;99338.41;;;12.60;97.75
70027;BME280;57506;50.092;15.804;2023-05-24T06:46:22;99349.22;;;12.67;96.29
70027;BME280;57506;50.092;15.804;2023-05-24T06:48:47;99355.34;;;12.95;97.40
70027;BME280;57506;50.092;15.804;2023-05-24T06:51:13;99349.28;;;12.87;93.19
70027;BME280;57506;50.092;15.804;2023-05-24T06:53:38;99355.34;;;12.95;93.14
70027;BME280;57506;50.092;15.804;2023-05-24T06:56:04;99350.50;;;12.71;91.62
70027;BME280;57506;50.092;15.804;2023-05-24T06:58:33;99352.78;;;12.68;93.61
70027;BME280;57506;50.092;15.804;2023-05-24T07:00:59;99359.25;;;12.73;93.03
70027;BME280;57506;50.092;15.804;2023-05-24T07:03:25;99357.13;;;12.69;92.11
70027;BME280;57506;50.092;15.804;2023-05-24T07:05:51;99358.25;;;12.94;93.83
70027;BME280;57506;50.092;15.804;2023-05-24T07:08:16;99347.25;;;13.09;93.36
70027;BME280;57506;50.092;15.804;2023-05-24T07:10:42;99341.88;;;13.22;92.48
70027;BME280;57506;50.092;15.804;2023-05-24T07:13:09;99353.53;;;13.22;88.43
70027;BME280;57506;50.092;15.804;2023-05-24T07:15:40;99358.97;;;13.22;87.83
70027;BME280;57506;50.092;15.804;2023-05-24T07:18:06;99354.59;;;13.54;90.29
70027;BME280;57506;50.092;15.804;2023-05-24T07:20:31;99352.09;;;13.73;86.16
70027;BME280;57506;50.092;15.804;2023-05-24T07:22:58;99358.75;;;13.57;84.23
70027;BME280;57506;50.092;15.804;2023-05-24T07:25:24;99358.56;;;13.45;84.38
70027;BME280;57506;50.092;15.804;2023-05-24T07:27:50;99357.31;;;13.41;83.15
70027;BME280;57506;50.092;15.804;2023-05-24T07:30:15;99369.34;;;13.85;83.85
70027;BME280;57506;50.092;15.804;2023-05-24T07:32:41;99368.97;;;13.55;82.39
70027;BME280;57506;50.092;15.804;2023-05-24T07:35:07;99372.91;;;13.65;81.16
70027;BME280;57506;50.092;15.804;2023-05-24T07:37:33;99368.94;;;13.35;80.76
70027;BME280;57506;50.092;15.804;2023-05-24T07:39:58;99386.88;;;13.62;80.17
70027;BME280;57506;50.092;15.804;2023-05-24T07:42:24;99380.63;;;13.75;77.66
70027;BME280;57506;50.092;15.804;2023-05-24T07:44:50;99383.94;;;13.64;78.63
70027;BME280;57506;50.092;15.804;2023-05-24T07:47:15;99366.47;;;13.80;78.53
70027;BME280;57506;50.092;15.804;2023-05-24T07:49:41;99375.41;;;13.67;77.55
70027;BME280;57506;50.092;15.804;2023-05-24T07:52:06;99374.59;;;13.80;79.00
70027;BME280;57506;50.092;15.804;2023-05-24T07:54:32;99367.50;;;13.72;78.68
70027;BME280;57506;50.092;15.804;2023-05-24T07:56:58;99375.81;;;13.71;79.42
70027;BME280;57506;50.092;15.804;2023-05-24T07:59:23;99363.06;;;14.04;81.68
70027;BME280;57506;50.092;15.804;2023-05-24T08:01:49;99365.88;;;14.49;78.54
70027;BME280;57506;50.092;15.804;2023-05-24T08:04:15;99376.84;;;13.83;77.66
70027;BME280;57506;50.092;15.804;2023-05-24T08:06:41;99364.97;;;13.84;75.88
70027;BME280;57506;50.092;15.804;2023-05-24T08:09:07;99358.28;;;13.99;75.46
70027;BME280;57506;50.092;15.804;2023-05-24T08:11:33;99367.25;;;14.00;77.28
70027;BME280;57506;50.092;15.804;2023-05-24T08:13:58;99369.25;;;14.31;76.75
70027;BME280;57506;50.092;15.804;2023-05-24T08:16:24;99367.66;;;14.10;78.46
70027;BME280;57506;50.092;15.804;2023-05-24T08:18:50;99369.44;;;14.29;80.27
70027;BME280;57506;50.092;15.804;2023-05-24T08:21:15;99380.78;;;14.00;75.54
70027;BME280;57506;50.092;15.804;2023-05-24T08:23:42;99373.09;;;13.84;76.88
70027;BME280;57506;50.092;15.804;2023-05-24T08:26:07;99364.75;;;13.98;77.41
70027;BME280;57506;50.092;15.804;2023-05-24T08:28:33;99369.00;;;14.46;77.47
70027;BME280;57506;50.092;15.804;2023-05-24T08:30:59;99374.50;;;14.19;73.09
70027;BME280;57506;50.092;15.804;2023-05-24T08:33:25;99375.34;;;14.13;74.21
70027;BME280;57506;50.092;15.804;2023-05-24T08:35:51;99374.03;;;14.29;70.81
70027;BME280;57506;50.092;15.804;2023-05-24T08:38:17;99377.59;;;14.43;74.01
70027;BME280;57506;50.092;15.804;2023-05-24T08:40:43;99385.22;;;14.65;71.53
70027;BME280;57506;50.092;15.804;2023-05-24T08:43:09;99379.56;;;14.74;72.76
70027;BME280;57506;50.092;15.804;2023-05-24T08:45:37;99392.09;;;14.61;70.91
70027;BME280;57506;50.092;15.804;2023-05-24T08:48:04;99400.00;;;14.76;68.55
70027;BME280;57506;50.092;15.804;2023-05-24T08:50:31;99390.00;;;14.70;70.08
70027;BME280;57506;50.092;15.804;2023-05-24T08:52:58;99394.03;;;14.48;68.83
70027;BME280;57506;50.092;15.804;2023-05-24T08:55:24;99384.06;;;14.42;71.25
70027;BME280;57506;50.092;15.804;2023-05-24T08:57:49;99387.50;;;14.62;72.19
70027;BME280;57506;50.092;15.804;2023-05-24T09:00:16;99399.66;;;14.53;72.31
70027;BME280;57506;50.092;15.804;2023-05-24T09:02:42;99398.19;;;14.50;73.03
70027;BME280;57506;50.092;15.804;2023-05-24T09:05:11;99386.69;;;14.61;71.30
70027;BME280;57506;50.092;15.804;2023-05-24T09:07:39;99395.44;;;14.63;71.09
70027;BME280;57506;50.092;15.804;2023-05-24T09:10:08;99404.59;;;14.69;72.55
70027;BME280;57506;50.092;15.804;2023-05-24T09:12:35;99397.44;;;14.81;72.41
70027;BME280;57506;50.092;15.804;2023-05-24T09:15:03;99410.78;;;14.89;71.28
70027;BME280;57506;50.092;15.804;2023-05-24T09:17:36;99398.94;;;14.77;69.44
70027;BME280;57506;50.092;15.804;2023-05-24T09:20:03;99404.09;;;14.41;69.43
70027;BME280;57506;50.092;15.804;2023-05-24T09:22:31;99405.91;;;14.60;70.32
70027;BME280;57506;50.092;15.804;2023-05-24T09:25:01;99409.06;;;14.95;70.09
70027;BME280;57506;50.092;15.804;2023-05-24T09:27:27;99417.41;;;14.49;69.21
70027;BME280;57506;50.092;15.804;2023-05-24T09:29:54;99398.25;;;14.44;73.27
70027;BME280;57506;50.092;15.804;2023-05-24T09:32:20;99407.56;;;14.61;71.48
70027;BME280;57506;50.092;15.804;2023-05-24T09:34:50;99417.94;;;14.77;71.42
70027;BME280;57506;50.092;15.804;2023-05-24T09:37:17;99405.50;;;15.01;72.34
70027;BME280;57506;50.092;15.804;2023-05-24T09:39:44;99412.94;;;15.12;68.13
70027;BME280;57506;50.092;15.804;2023-05-24T09:42:16;99405.63;;;15.13;71.05
70027;BME280;57506;50.092;15.804;2023-05-24T09:44:46;99406.09;;;15.10;70.40
70027;BME280;57506;50.092;15.804;2023-05-24T09:47:12;99404.09;;;14.92;70.18
70027;BME280;57506;50.092;15.804;2023-05-24T09:49:38;99407.63;;;14.92;69.81
70027;BME280;57506;50.092;15.804;2023-05-24T09:52:03;99394.00;;;14.61;69.60
70027;BME280;57506;50.092;15.804;2023-05-24T09:54:31;99405.41;;;14.76;70.73
70027;BME280;57506;50.092;15.804;2023-05-24T09:57:01;99410.91;;;14.56;70.68
70027;BME280;57506;50.092;15.804;2023-05-24T09:59:31;99406.19;;;14.90;68.62
70027;BME280;57506;50.092;15.804;2023-05-24T10:02:11;99405.91;;;15.04;65.47
70027;BME280;57506;50.092;15.804;2023-05-24T10:04:39;99412.03;;;14.93;67.30
70027;BME280;57506;50.092;15.804;2023-05-24T10:07:06;99398.50;;;14.80;67.12
70027;BME280;57506;50.092;15.804;2023-05-24T10:09:33;99400.50;;;14.98;68.74
70027;BME280;57506;50.092;15.804;2023-05-24T10:12:04;99404.16;;;15.17;68.90
70027;BME280;57506;50.092;15.804;2023-05-24T10:14:35;99388.34;;;15.38;69.54
70027;BME280;57506;50.092;15.804;2023-05-24T10:17:05;99402.25;;;15.49;64.55
70027;BME280;57506;50.092;15.804;2023-05-24T10:19:32;99404.28;;;15.28;65.35
70027;BME280;57506;50.092;15.804;2023-05-24T10:21:59;99394.69;;;15.26;69.31
70027;BME280;57506;50.092;15.804;2023-05-24T10:24:38;99394.69;;;15.26;68.28
70027;BME280;57506;50.092;15.804;2023-05-24T10:27:08;99391.59;;;15.47;67.38
70027;BME280;57506;50.092;15.804;2023-05-24T10:32:13;99408.53;;;15.49;67.31
70027;BME280;57506;50.092;15.804;2023-05-24T10:34:40;99397.53;;;15.37;66.32
70027;BME280;57506;50.092;15.804;2023-05-24T10:37:07;99410.72;;;15.34;66.83
70027;BME280;57506;50.092;15.804;2023-05-24T10:39:34;99404.75;;;15.19;66.78
70027;BME280;57506;50.092;15.804;2023-05-24T10:42:06;99412.94;;;15.44;67.81
70027;BME280;57506;50.092;15.804;2023-05-24T10:44:32;99413.19;;;15.42;65.34
70027;BME280;57506;50.092;15.804;2023-05-24T10:47:19;99414.59;;;15.45;64.47
70027;BME280;57506;50.092;15.804;2023-05-24T10:49:50;99414.28;;;15.28;63.85
70027;BME280;57506;50.092;15.804;2023-05-24T10:52:17;99423.88;;;15.37;61.82
70027;BME280;57506;50.092;15.804;2023-05-24T10:55:18;99430.47;;;15.48;61.01
70027;BME280;57506;50.092;15.804;2023-05-24T10:57:43;99429.47;;;15.42;58.79
70027;BME280;57506;50.092;15.804;2023-05-24T11:02:48;99430.25;;;15.81;65.58
70027;BME280;57506;50.092;15.804;2023-05-24T11:05:14;99424.59;;;15.82;63.39
70027;BME280;57506;50.092;15.804;2023-05-24T11:07:41;99416.75;;;15.92;64.72
70027;BME280;57506;50.092;15.804;2023-05-24T11:10:14;99421.56;;;16.15;64.60
70027;BME280;57506;50.092;15.804;2023-05-24T11:12:41;99430.50;;;16.22;59.90
70027;BME280;57506;50.092;15.804;2023-05-24T11:15:09;99427.53;;;15.81;59.58
70027;BME280;57506;50.092;15.804;2023-05-24T11:20:43;99427.13;;;16.02;61.38
70027;BME280;57506;50.092;15.804;2023-05-24T11:23:13;99425.56;;;16.13;63.87
70027;BME280;57506;50.092;15.804;2023-05-24T11:25:39;99421.38;;;16.35;62.89
70027;BME280;57506;50.092;15.804;2023-05-24T11:28:09;99428.53;;;16.29;61.05
70027;BME280;57506;50.092;15.804;2023-05-24T11:30:43;99424.69;;;16.19;62.19
70027;BME280;57506;50.092;15.804;2023-05-24T11:33:27;99422.44;;;16.09;60.26
70027;BME280;57506;50.092;15.804;2023-05-24T11:35:54;99429.44;;;16.23;58.89
70027;BME280;57506;50.092;15.804;2023-05-24T11:38:20;99425.78;;;16.11;58.16
70027;BME280;57506;50.092;15.804;2023-05-24T11:40:48;99422.56;;;16.21;57.86
70027;BME280;57506;50.092;15.804;2023-05-24T11:43:20;99422.72;;;16.26;58.30
70027;BME280;57506;50.092;15.804;2023-05-24T11:45:50;99414.50;;;16.51;62.92
70027;BME280;57506;50.092;15.804;2023-05-24T11:48:17;99419.03;;;16.38;59.92
70027;BME280;57506;50.092;15.804;2023-05-24T11:50:45;99418.00;;;16.39;60.83
70027;BME280;57506;50.092;15.804;2023-05-24T11:53:14;99415.72;;;16.36;62.74
70027;BME280;57506;50.092;15.804;2023-05-24T11:55:41;99429.75;;;16.33;60.15
70027;BME280;57506;50.092;15.804;2023-05-24T11:58:48;99411.53;;;16.34;61.12
70027;BME280;57506;50.092;15.804;2023-05-24T12:01:23;99410.81;;;16.63;62.55
70027;BME280;57506;50.092;15.804;2023-05-24T12:03:50;99407.31;;;16.93;62.11
70027;BME280;57506;50.092;15.804;2023-05-24T12:06:18;99414.66;;;16.74;61.81
70027;BME280;57506;50.092;15.804;2023-05-24T12:08:44;99419.59;;;17.13;61.64
70027;BME280;57506;50.092;15.804;2023-05-24T12:11:10;99404.91;;;17.14;60.69
70027;BME280;57506;50.092;15.804;2023-05-24T12:13:36;99408.19;;;17.35;62.71
70027;BME280;57506;50.092;15.804;2023-05-24T12:16:04;99416.47;;;16.80;58.75
70027;BME280;57506;50.092;15.804;2023-05-24T12:18:30;99413.53;;;16.63;59.21
70027;BME280;57506;50.092;15.804;2023-05-24T12:20:57;99406.63;;;16.97;60.54
70027;BME280;57506;50.092;15.804;2023-05-24T12:23:24;99411.63;;;17.00;59.22
70027;BME280;57506;50.092;15.804;2023-05-24T12:26:00;99403.56;;;17.05;61.56
70027;BME280;57506;50.092;15.804;2023-05-24T12:28:26;99405.53;;;17.17;61.20
70027;BME280;57506;50.092;15.804;2023-05-24T12:30:52;99398.63;;;17.14;60.56
70027;BME280;57506;50.092;15.804;2023-05-24T12:33:19;99414.34;;;17.42;61.18
70027;BME280;57506;50.092;15.804;2023-05-24T12:35:46;99403.78;;;17.75;59.93
70027;BME280;57506;50.092;15.804;2023-05-24T12:38:12;99421.81;;;17.88;58.87
70027;BME280;57506;50.092;15.804;2023-05-24T12:40:41;99415.75;;;17.74;58.98
70027;BME280;57506;50.092;15.804;2023-05-24T12:43:08;99410.22;;;17.93;64.67
70027;BME280;57506;50.092;15.804;2023-05-24T12:45:35;99409.03;;;18.12;58.00
70027;BME280;57506;50.092;15.804;2023-05-24T12:48:01;99410.09;;;17.88;57.14
70027;BME280;57506;50.092;15.804;2023-05-24T12:50:29;99405.00;;;17.79;56.53
70027;BME280;57506;50.092;15.804;2023-05-24T12:52:56;99401.81;;;17.82;57.88
70027;BME280;57506;50.092;15.804;2023-05-24T12:55:23;99404.88;;;18.09;56.16
70027;BME280;57506;50.092;15.804;2023-05-24T12:57:53;99398.16;;;17.47;58.71
70027;BME280;57506;50.092;15.804;2023-05-24T13:00:25;99402.91;;;17.63;59.48
70027;BME280;57506;50.092;15.804;2023-05-24T13:02:56;99410.09;;;17.46;56.45
70027;BME280;57506;50.092;15.804;2023-05-24T13:05:26;99398.22;;;17.70;59.38
70027;BME280;57506;50.092;15.804;2023-05-24T13:07:53;99398.94;;;17.77;56.41